Krong Siem Reap, Cambodia

9:43 AM ICT on September 19, 2014 (GMT +0700)
Siem Reap | Change Station
CLOSE
Current Station
Airport
Location: Siemreap,
Elevation: 49 ft
Nearby Weather Stations

Elev 49 ft 13.37 °N, 103.85 °E | Updated 13 minutes ago

Partly Cloudy
Partly Cloudy
86 °F
Feels Like 95 °F
N
7
Wind Variable Wind from WNW

Today
High -- | Low -- °F
--% Chance of Precip.
Yesterday
High -- | Low -- °F
Precip. -- in
5:53 AM 6:03 PM
Waning Crescent, 22% visible
Pressure 29.86 in
Visibility 6.2 miles
Clouds Few 2000 ft
Heat Index 95 °F
Dew Point 75 °F
Humidity 70%
Rainfall 0.00 in
Snow Depth Not available.
UV 11 out of 12
Pollen Not available.
Air Quality Not available.
Flu Activity Not available.
METAR VDSR 190230Z 29006KT 250V330 9999 FEW020 30/24 Q1011

More Conditions Fewer Conditions

Pressure 29.86 in
Visibility 6.2 miles
Clouds Few 2000 ft
Heat Index 95 °F
Dew Point 75 °F
Humidity 70%
Rainfall 0.00 in
Snow Depth Not available.
UV 11 out of 12
Pollen Not available.
Air Quality Not available.
Flu Activity Not available.
METAR VDSR 190230Z 29006KT 250V330 9999 FEW020 30/24 Q1011

More Conditions Fewer Conditions

10-Day Weather Forecast

Almanac

Astronomy

Sep. 19, 2014 Rise Set
Actual Time 5:53 AM ICT 6:03 PM ICT
Civil Twilight 5:32 AM ICT 6:24 PM ICT
Nautical Twilight 5:07 AM ICT 6:49 PM ICT
Astronomical Twilight 4:43 AM ICT 7:14 PM ICT
Moon 1:46 AM ICT 2:39 PM ICT
Length of Visible Light 12h 52m
Length of Day
12h 09m
Tomorrow will be 0m 45s shorter.
Waning Crescent, 22% of the Moon is Illuminated
Sep 18
Waning Crescent
Sep 24
New
Oct 1
First Quarter
Oct 8
Full
Oct 15
Last Quarter

Yesterday's Extremes

Country Highs Country Lows

Community

WunderPhotos

Upload Photos

1,754,546 photos uploaded!

Nearby

Snow Depth

Not available.

Earthquake Activity

City Distance Mag. Time & Date
No recent earthquake activity has been reported nearby.
Minimum magnitude displayed is 2.5.

Coastal Water Temperatures

Place Temperature
No Stations Reporting

Nearby Weather Stations